Tintah, Minnesota
Current Conditions -  °F | °C
As of 6:39 AM on Friday 28 Nov 2014 (Local Time) from KY63 Reporting Station
Clear Clear  
Wind Chill: -2°   Ceiling: Unl
Heat Index: 10°   Visibility: 7mi
Dew Point:   Wind: 7mph
Humidity: 78%   Direction: 130°SE
Pressure: 29.95"   Gusts: NA
Location:  46.01°N, 96.32°W
Report Text: KY63 281239Z AUTO 13006KT 7SM CLR M12/M16 A2995 RMK AO2 T11251156
Loading
Personal Weather Stations






























Interactive Weather Map New forecast layout! Learn more

10-Day Weather Forecast

Advertisements
Track Severe Weather on mobile